Weather at Happy Valley Airport [CLOSED]

Public forecast

Using degrees Fahrenheit for public forecast. Weather courtesy of forecast.io.

Closest aviation weather report (METAR) to Happy Valley Airport

Closest report is Portland Troutdale Airport, 7.5 nm (13.8 km) NE. Retrieved 2021/10/28 03:53 UTC (1 hour ago):

KTTD 280353Z 07003KT 10SM FEW043 OVC050 12/10 A3027 RMK AO2 SLP250 T01220100

Closest aviation forecast (TAF) to Happy Valley Airport

Closest forecast is Portland Troutdale Airport, 7.5 nm (13.8 km) NE. Retrieved 2021-10-28 00:51 UTC (4 hours ago):

TAF KTTD 272348Z 2800/2824 20006KT P6SM -RA SCT040 OVC070 FM280300 09005KT 6SM -RA OVC029 FM280700 14010G17KT 6SM -RA OVC022 WS020/22035KT FM281100 17006KT 6SM -RA OVC016 WS020/22035KT FM282100 18007KT P6SM VCSH BKN035